Time;durP1;ratioP1;P1;durP2;ratioP2;P2;SDS_P1;SDS_P2;PMS_P1;PMS_P2;Temp;Humidity;BMP_temperature;BMP_pressure;BME280_temperature;BME280_humidity;BME280_pressure;Samples;Min_cycle;Max_cycle;Signal;HPM_P1;HPM_P2
2021/09/03 00:00:11;;;;;;;38.58;16.30;;;;;;;11.71;95.46;102636.44;6180012;23;20020;-83
2021/09/03 00:02:37;;;;;;;35.42;14.70;;;;;;;11.70;95.24;102633.72;6186106;23;20078;-83
2021/09/03 00:05:12;;;;;;;35.67;16.88;;;;;;;11.69;95.28;102627.53;6185506;23;20016;-81
2021/09/03 00:07:37;;;;;;;40.33;16.88;;;;;;;11.67;95.62;102628.34;6160719;23;20051;-82
2021/09/03 00:10:08;;;;;;;41.28;17.83;;;;;;;11.66;96.00;102629.16;6183418;23;20001;-80
2021/09/03 00:12:54;;;;;;;48.80;18.10;;;;;;;11.62;96.23;102623.78;6184192;23;20076;-79
2021/09/03 00:15:19;;;;;;;45.33;18.42;;;;;;;11.61;96.30;102615.78;6182817;23;20016;-81
2021/09/03 00:17:45;;;;;;;38.13;16.92;;;;;;;11.58;96.25;102613.91;6159108;23;20333;-78
2021/09/03 00:20:21;;;;;;;38.85;16.02;;;;;;;11.57;95.70;102617.41;6184537;23;20388;-79
2021/09/03 00:22:47;;;;;;;41.92;16.70;;;;;;;11.58;95.43;102610.38;6159960;23;20400;-79
2021/09/03 00:25:13;;;;;;;42.80;17.42;;;;;;;11.58;95.80;102619.19;6184389;23;20025;-79
2021/09/03 00:27:39;;;;;;;34.25;15.57;;;;;;;11.55;96.02;102612.91;6182869;23;20429;-82
2021/09/03 00:30:25;;;;;;;38.38;17.65;;;;;;;11.54;95.93;102609.34;6159398;23;20005;-83
2021/09/03 00:32:50;;;;;;;47.10;17.33;;;;;;;11.53;96.14;102611.94;6186073;23;20033;-83
2021/09/03 00:35:36;;;;;;;38.58;17.23;;;;;;;11.52;96.29;102612.78;6183725;23;20009;-81
2021/09/03 00:38:01;;;;;;;38.33;16.65;;;;;;;11.50;95.77;102604.78;6185687;23;20005;-80
2021/09/03 00:40:27;;;;;;;40.58;17.42;;;;;;;11.50;96.11;102602.16;6186454;23;20067;-82
2021/09/03 00:42:52;;;;;;;45.22;18.15;;;;;;;11.49;96.71;102608.28;6186006;23;20479;-79
2021/09/03 00:45:17;;;;;;;36.75;16.10;;;;;;;11.47;96.42;102602.03;6184873;23;20004;-79
2021/09/03 00:47:43;;;;;;;38.97;17.77;;;;;;;11.46;96.58;102598.50;6185941;23;20350;-78
2021/09/03 00:50:29;;;;;;;38.88;16.65;;;;;;;11.45;96.63;102601.09;6183685;23;20439;-78
2021/09/03 00:52:55;;;;;;;48.08;19.02;;;;;;;11.43;96.71;102598.38;6186009;23;20013;-79
2021/09/03 00:55:20;;;;;;;44.53;18.17;;;;;;;11.42;96.74;102586.03;6183625;23;20419;-76
2021/09/03 00:57:46;;;;;;;38.53;17.17;;;;;;;11.39;96.89;102587.66;6184673;23;20005;-78
2021/09/03 01:00:12;;;;;;;44.75;18.02;;;;;;;11.37;96.91;102582.31;6179153;23;20000;-81
2021/09/03 01:02:37;;;;;;;45.80;17.92;;;;;;;11.36;97.17;102596.31;6184882;23;20011;-79
2021/09/03 01:05:03;;;;;;;47.78;18.15;;;;;;;11.36;97.16;102590.16;6183990;23;20420;-79
2021/09/03 01:07:29;;;;;;;41.83;18.08;;;;;;;11.35;97.64;102589.25;6183351;23;20012;-82
2021/09/03 01:09:54;;;;;;;48.83;18.60;;;;;;;11.35;97.72;102586.59;6186262;23;20005;-81
2021/09/03 01:12:20;;;;;;;49.67;19.13;;;;;;;11.34;97.65;102584.84;6184659;23;20051;-78
2021/09/03 01:14:45;;;;;;;47.95;17.40;;;;;;;11.34;97.77;102582.19;6185619;23;20001;-79
2021/09/03 01:17:12;;;;;;;47.20;17.75;;;;;;;11.33;97.65;102580.38;6159614;23;20040;-82
2021/09/03 01:19:37;;;;;;;52.28;18.38;;;;;;;11.33;97.55;102575.13;6185814;23;20025;-79
2021/09/03 01:22:03;;;;;;;50.38;19.40;;;;;;;11.33;97.53;102568.94;6185355;23;20005;-78
2021/09/03 01:24:28;;;;;;;49.95;17.88;;;;;;;11.34;97.77;102571.66;6182635;23;20009;-80
2021/09/03 01:26:54;;;;;;;44.90;17.83;;;;;;;11.33;97.68;102569.84;6183334;23;20005;-79
2021/09/03 01:29:19;;;;;;;45.97;19.25;;;;;;;11.33;97.74;102572.47;6185683;23;20001;-78
2021/09/03 01:31:45;;;;;;;53.40;17.45;;;;;;;11.30;97.93;102570.63;6184009;23;20063;-80
2021/09/03 01:34:10;;;;;;;48.22;17.77;;;;;;;11.28;97.90;102560.84;6185058;23;19997;-80
2021/09/03 01:36:36;;;;;;;49.00;18.60;;;;;;;11.30;97.74;102569.72;6183678;23;20496;-79
2021/09/03 01:39:03;;;;;;;45.42;18.20;;;;;;;11.28;97.98;102566.13;6180950;23;20328;-80
2021/09/03 01:41:29;;;;;;;46.75;17.38;;;;;;;11.26;97.80;102557.25;6183394;23;20095;-82
2021/09/03 01:43:54;;;;;;;43.65;18.48;;;;;;;11.24;98.04;102562.44;6185220;23;20021;-82
2021/09/03 01:46:20;;;;;;;43.88;17.70;;;;;;;11.23;98.11;102554.47;6184174;23;20009;-82
2021/09/03 01:48:46;;;;;;;44.28;18.67;;;;;;;11.21;98.04;102550.91;6183290;23;20472;-80
2021/09/03 01:51:32;;;;;;;45.78;17.67;;;;;;;11.22;98.10;102547.44;6183352;23;20009;-77
2021/09/03 01:53:57;;;;;;;48.00;17.75;;;;;;;11.20;98.20;102547.34;6156056;23;20080;-80
2021/09/03 01:56:23;;;;;;;47.42;17.85;;;;;;;11.19;98.09;102542.00;6183291;23;20119;-78
2021/09/03 01:58:48;;;;;;;47.60;17.65;;;;;;;11.16;98.38;102544.53;6184583;23;20406;-82
2021/09/03 02:01:14;;;;;;;43.83;16.85;;;;;;;11.14;98.30;102536.56;6177748;23;20084;-78
2021/09/03 02:03:39;;;;;;;45.20;18.67;;;;;;;11.12;98.31;102540.84;6182175;23;20080;-81
2021/09/03 02:06:04;;;;;;;47.80;17.90;;;;;;;11.10;98.29;102535.53;6183123;23;20012;-81
2021/09/03 02:08:31;;;;;;;47.63;18.73;;;;;;;11.08;98.42;102534.59;6184058;23;20001;-81
2021/09/03 02:10:56;;;;;;;52.42;18.63;;;;;;;11.07;98.41;102530.13;6157909;23;20009;-79
2021/09/03 02:13:22;;;;;;;45.40;16.77;;;;;;;11.08;98.27;102531.03;6155799;23;20001;-83
2021/09/03 02:15:49;;;;;;;47.33;18.13;;;;;;;11.06;98.39;102530.09;6184107;23;20052;-77
2021/09/03 02:18:15;;;;;;;38.75;17.30;;;;;;;11.03;98.51;102530.84;6182843;23;20425;-79
2021/09/03 02:20:44;;;;;;;45.53;18.67;;;;;;;11.05;98.29;102530.91;6184138;23;20440;-78
2021/09/03 02:23:10;;;;;;;59.20;18.95;;;;;;;11.05;97.97;102529.16;6180901;23;20084;-81
2021/09/03 02:25:36;;;;;;;49.90;18.63;;;;;;;11.05;98.26;102531.78;6184477;23;20036;-81
2021/09/03 02:28:01;;;;;;;51.97;18.20;;;;;;;11.02;98.29;102526.41;6183883;23;20012;-81
2021/09/03 02:30:27;;;;;;;48.22;18.92;;;;;;;11.03;98.26;102522.03;6184333;23;20334;-79
2021/09/03 02:32:52;;;;;;;51.28;20.73;;;;;;;11.01;98.57;102521.97;6185544;23;20001;-82
2021/09/03 02:35:38;;;;;;;51.92;19.00;;;;;;;10.99;98.30;102526.28;6181990;23;20001;-77
2021/09/03 02:38:04;;;;;;;59.53;19.50;;;;;;;10.98;98.49;102523.59;6184783;23;20033;-78
2021/09/03 02:40:31;;;;;;;53.75;20.10;;;;;;;10.95;98.51;102512.06;6184893;23;20008;-84
2021/09/03 02:42:57;;;;;;;53.60;19.75;;;;;;;10.95;98.45;102511.19;6185352;23;20004;-78
2021/09/03 02:45:23;;;;;;;49.22;19.00;;;;;;;10.94;98.63;102514.66;6183423;23;20005;-78
2021/09/03 02:47:49;;;;;;;56.45;19.65;;;;;;;10.98;98.51;102510.44;6183482;23;20443;-80
2021/09/03 02:50:14;;;;;;;48.70;17.95;;;;;;;10.97;98.80;102512.13;6184914;23;20001;-80
2021/09/03 02:52:40;;;;;;;51.97;19.15;;;;;;;10.96;98.86;102510.38;6156895;23;20490;-84
2021/09/03 02:55:07;;;;;;;49.13;18.73;;;;;;;10.94;98.88;102512.03;6156420;23;20100;-78
2021/09/03 02:57:32;;;;;;;50.28;19.10;;;;;;;10.91;98.83;102504.00;6185257;23;20085;-85
2021/09/03 02:59:58;;;;;;;48.63;18.80;;;;;;;10.90;99.00;102499.56;6184593;23;20332;-77
2021/09/03 03:02:23;;;;;;;46.75;19.08;;;;;;;10.90;98.66;102495.19;6178087;23;20532;-78
2021/09/03 03:04:51;;;;;;;54.90;19.45;;;;;;;10.90;98.56;102491.66;6184557;23;20083;-80
2021/09/03 03:07:16;;;;;;;47.08;18.05;;;;;;;10.91;98.67;102490.84;6181884;23;20080;-78
2021/09/03 03:10:03;;;;;;;43.70;18.38;;;;;;;10.90;98.69;102486.38;6184954;23;20455;-78
2021/09/03 03:12:28;;;;;;;49.70;18.88;;;;;;;10.88;98.79;102483.69;6181794;23;20011;-80
2021/09/03 03:14:54;;;;;;;50.97;18.65;;;;;;;10.89;98.82;102481.94;6182949;23;20001;-82
2021/09/03 03:17:19;;;;;;;45.55;18.48;;;;;;;10.88;98.58;102478.44;6180950;23;20080;-79
2021/09/03 03:19:45;;;;;;;47.13;18.35;;;;;;;10.88;98.96;102480.16;6185343;23;20091;-84
2021/09/03 03:22:11;;;;;;;51.03;18.52;;;;;;;10.86;99.26;102471.31;6182458;23;20031;-80
2021/09/03 03:24:36;;;;;;;50.53;18.83;;;;;;;10.86;99.07;102471.31;6186087;23;20005;-80
2021/09/03 03:27:02;;;;;;;49.00;18.58;;;;;;;10.84;99.01;102470.31;6185992;23;20072;-80
2021/09/03 03:29:28;;;;;;;50.60;19.30;;;;;;;10.82;99.32;102474.63;6185791;23;20001;-81
2021/09/03 03:31:54;;;;;;;59.05;19.52;;;;;;;10.82;99.22;102472.91;6185728;23;20019;-81
2021/09/03 03:34:20;;;;;;;54.70;18.45;;;;;;;10.83;98.95;102474.69;6182722;23;20005;-82
2021/09/03 03:36:45;;;;;;;55.50;18.02;;;;;;;10.83;99.23;102468.53;6186720;23;20008;-80
2021/09/03 03:39:11;;;;;;;53.78;19.10;;;;;;;10.83;99.15;102461.53;6183571;23;20005;-76
2021/09/03 03:41:37;;;;;;;50.67;18.20;;;;;;;10.82;99.42;102464.09;6186094;23;20432;-82
2021/09/03 03:44:23;;;;;;;56.28;18.77;;;;;;;10.83;99.13;102465.91;6185476;23;20021;-78
2021/09/03 03:46:48;;;;;;;49.30;19.45;;;;;;;10.81;99.50;102468.44;6184043;23;20084;-79
2021/09/03 03:49:14;;;;;;;53.58;17.92;;;;;;;10.78;99.23;102466.63;6186756;23;20079;-79
2021/09/03 03:51:39;;;;;;;51.78;18.50;;;;;;;10.77;99.27;102454.28;6185791;23;20005;-82
2021/09/03 03:54:05;;;;;;;55.30;19.17;;;;;;;10.74;99.28;102454.16;6185063;23;20001;-78
2021/09/03 03:56:33;;;;;;;53.97;19.30;;;;;;;10.72;99.46;102447.03;6183545;23;20058;-85
2021/09/03 03:58:58;;;;;;;54.47;19.40;;;;;;;10.70;99.16;102449.59;6186297;23;20039;-82
2021/09/03 04:01:24;;;;;;;47.42;18.85;;;;;;;10.68;99.23;102450.38;6180721;23;20053;-81
2021/09/03 04:03:49;;;;;;;49.13;17.85;;;;;;;10.66;98.99;102446.75;6186329;23;20080;-82
2021/09/03 04:06:23;;;;;;;46.80;18.88;;;;;;;10.64;99.27;102446.69;6184800;23;20328;-79
2021/09/03 04:08:49;;;;;;;56.92;19.88;;;;;;;10.62;99.02;102448.34;6159903;23;20005;-78
2021/09/03 04:11:14;;;;;;;56.55;20.20;;;;;;;10.60;99.21;102447.41;6180305;23;20001;-81
2021/09/03 04:13:39;;;;;;;60.53;20.55;;;;;;;10.60;99.16;102447.41;6184906;23;20298;-78
2021/09/03 04:16:05;;;;;;;43.78;19.58;;;;;;;10.60;99.42;102447.41;6182846;23;20024;-79
2021/09/03 04:18:30;;;;;;;51.40;20.10;;;;;;;10.59;99.02;102446.53;6181635;23;20005;-82
2021/09/03 04:20:56;;;;;;;47.95;19.38;;;;;;;10.61;99.16;102441.31;6184784;23;20009;-78
2021/09/03 04:23:21;;;;;;;55.58;19.92;;;;;;;10.59;99.26;102446.53;6181515;23;20064;-80
2021/09/03 04:25:47;;;;;;;57.40;21.23;;;;;;;10.60;99.10;102444.78;6180560;23;20008;-80
2021/09/03 04:28:12;;;;;;;51.13;19.58;;;;;;;10.60;98.93;102440.41;6179374;23;20013;-78
2021/09/03 04:30:38;;;;;;;50.35;20.13;;;;;;;10.61;99.05;102446.59;6180536;23;20001;-79
2021/09/03 04:33:03;;;;;;;47.30;19.70;;;;;;;10.60;99.47;102439.50;6182235;23;20008;-78
2021/09/03 04:35:29;;;;;;;53.97;19.95;;;;;;;10.58;99.55;102439.44;6182960;23;20077;-80
2021/09/03 04:37:54;;;;;;;52.67;19.77;;;;;;;10.58;99.29;102449.06;6183363;23;20005;-77
2021/09/03 04:40:28;;;;;;;54.45;21.08;;;;;;;10.60;99.15;102447.41;6180327;23;20001;-81
2021/09/03 04:42:56;;;;;;;;;;;;;;;10.61;99.23;102449.22;6181820;23;20013;-80
2021/09/03 04:45:21;;;;;;;46.78;18.67;;;;;;;10.60;99.47;102443.03;6180533;23;19991;-80
2021/09/03 04:47:46;;;;;;;58.15;21.10;;;;;;;10.61;99.25;102438.69;6180753;23;20084;-78
2021/09/03 04:50:14;;;;;;;54.35;20.27;;;;;;;10.59;99.55;102429.81;6186571;23;20001;-78
2021/09/03 04:52:40;;;;;;;64.00;21.45;;;;;;;10.59;99.64;102433.34;6183879;23;20012;-80
2021/09/03 04:55:06;;;;;;;57.33;20.13;;;;;;;10.60;99.27;102434.25;6181674;23;20001;-79
2021/09/03 04:57:31;;;;;;;53.63;20.23;;;;;;;10.63;99.25;102431.72;6181440;23;20013;-78
2021/09/03 04:59:56;;;;;;;59.60;20.50;;;;;;;10.65;99.19;102434.44;6180650;23;20438;-79
2021/09/03 05:02:22;;;;;;;53.47;20.40;;;;;;;10.65;99.43;102432.72;6177128;23;20008;-80
2021/09/03 05:04:47;;;;;;;58.03;21.35;;;;;;;10.70;99.68;102433.81;6180619;23;20008;-81
2021/09/03 05:07:13;;;;;;;61.42;20.40;;;;;;;10.72;99.76;102445.28;6181384;23;20092;-80
2021/09/03 05:09:38;;;;;;;56.58;19.92;;;;;;;10.72;99.97;102436.50;6156574;23;20043;-79
2021/09/03 05:12:04;;;;;;;62.00;22.00;;;;;;;10.74;99.95;102445.34;6153993;23;20305;-78
2021/09/03 05:14:29;;;;;;;75.22;23.42;;;;;;;10.76;100.00;102436.69;6183260;23;19997;-83
2021/09/03 05:16:55;;;;;;;73.47;22.67;;;;;;;10.76;100.00;102443.69;6180997;23;20342;-81
2021/09/03 05:19:21;;;;;;;67.55;23.45;;;;;;;10.77;100.00;102440.19;6179805;23;20096;-78
2021/09/03 05:21:46;;;;;;;75.10;25.80;;;;;;;10.76;100.00;102436.69;6181588;23;20008;-79
2021/09/03 05:24:11;;;;;;;72.68;24.45;;;;;;;10.77;100.00;102430.59;6179069;23;20036;-79
2021/09/03 05:26:37;;;;;;;73.60;26.73;;;;;;;10.78;100.00;102432.41;6182767;23;20001;-79
2021/09/03 05:29:02;;;;;;;64.97;23.95;;;;;;;10.79;100.00;102430.66;6155854;23;20399;-77
2021/09/03 05:31:48;;;;;;;73.50;25.75;;;;;;;10.82;100.00;102437.78;6184262;23;20032;-82
2021/09/03 05:34:13;;;;;;;61.72;22.98;;;;;;;10.86;100.00;102434.44;6180326;23;20019;-80
2021/09/03 05:36:39;;;;;;;66.72;20.98;;;;;;;10.91;100.00;102439.03;6182570;23;20080;-77
2021/09/03 05:39:04;;;;;;;67.28;23.02;;;;;;;10.99;100.00;102442.00;6182728;23;20005;-76
2021/09/03 05:41:50;;;;;;;69.60;24.33;;;;;;;11.04;100.00;102445.72;6183704;23;20008;-78
2021/09/03 05:44:15;;;;;;;78.95;25.30;;;;;;;11.10;100.00;102450.34;6183670;23;20001;-76
2021/09/03 05:46:40;;;;;;;85.47;25.38;;;;;;;11.16;100.00;102450.56;6186519;23;20005;-79
2021/09/03 05:49:06;;;;;;;78.75;25.85;;;;;;;11.23;100.00;102452.63;6186665;23;20466;-81
2021/09/03 05:51:51;;;;;;;78.00;25.73;;;;;;;11.31;100.00;102452.91;6186466;23;20364;-79
2021/09/03 05:54:16;;;;;;;83.75;26.58;;;;;;;11.37;100.00;102445.25;6185706;23;20341;-78
2021/09/03 05:56:42;;;;;;;69.85;25.67;;;;;;;11.42;100.00;102443.72;6185601;23;20001;-79
2021/09/03 05:59:07;;;;;;;72.78;24.50;;;;;;;11.50;100.00;102451.00;6185387;23;20489;-81
2021/09/03 06:01:33;;;;;;;69.18;24.88;;;;;;;11.57;100.00;102455.66;6181150;23;20011;-81
2021/09/03 06:03:58;;;;;;;73.57;25.92;;;;;;;11.62;100.00;102447.13;6184970;23;20001;-78
2021/09/03 06:06:24;;;;;;;68.50;24.75;;;;;;;11.71;100.00;102448.31;6183567;23;20035;-78
2021/09/03 06:08:52;;;;;;;69.80;25.63;;;;;;;11.77;100.00;102444.16;6158051;23;20009;-80
2021/09/03 06:11:20;;;;;;;85.35;26.33;;;;;;;11.89;100.00;102441.06;6184779;23;20016;-77
2021/09/03 06:13:47;;;;;;;74.25;25.60;;;;;;;12.00;100.00;102444.13;6183994;23;20005;-79
2021/09/03 06:16:12;;;;;;;81.97;28.70;;;;;;;12.16;100.00;102442.06;6180259;23;20139;-80
2021/09/03 06:18:38;;;;;;;79.38;28.02;;;;;;;12.29;100.00;102436.38;6147068;23;20092;-78
2021/09/03 06:21:03;;;;;;;78.00;27.17;;;;;;;12.43;100.00;102437.72;6180766;23;20009;-79
2021/09/03 06:23:29;;;;;;;68.97;26.67;;;;;;;12.52;100.00;102442.44;6182450;23;20009;-79
2021/09/03 06:25:54;;;;;;;70.43;26.85;;;;;;;12.69;100.00;102439.47;6155549;23;20421;-79
2021/09/03 06:28:20;;;;;;;65.65;26.45;;;;;;;12.79;100.00;102444.19;6182039;23;20008;-80
2021/09/03 06:30:45;;;;;;;66.00;24.73;;;;;;;12.88;100.00;102446.25;6181886;23;20076;-77
2021/09/03 06:33:11;;;;;;;55.47;23.45;;;;;;;13.01;100.00;102451.09;6182742;23;20084;-78
2021/09/03 06:35:38;;;;;;;58.50;23.73;;;;;;;13.12;100.00;102444.41;6182053;23;20089;-78
2021/09/03 06:38:04;;;;;;;49.95;22.40;;;;;;;13.23;100.00;102447.38;6184085;23;20012;-79
2021/09/03 06:40:29;;;;;;;43.75;21.15;;;;;;;13.35;99.67;102446.88;6184129;23;20088;-77
2021/09/03 06:42:54;;;;;;;56.70;24.35;;;;;;;13.44;99.27;102447.22;6184414;23;20036;-78
2021/09/03 06:45:20;;;;;;;48.90;21.63;;;;;;;13.53;99.05;102440.41;6180774;23;20006;-78
2021/09/03 06:47:45;;;;;;;47.17;22.52;;;;;;;13.62;98.60;102438.03;6157180;23;20016;-77
2021/09/03 06:50:11;;;;;;;50.67;21.67;;;;;;;13.72;98.63;102445.38;6154983;23;20417;-78
2021/09/03 06:52:36;;;;;;;44.15;22.27;;;;;;;13.79;98.10;102442.03;6183380;23;20005;-77
2021/09/03 06:55:03;;;;;;;42.15;21.20;;;;;;;13.95;98.24;102438.09;6181826;23;20472;-81
2021/09/03 06:57:29;;;;;;;39.97;20.90;;;;;;;14.07;97.51;102448.13;6181127;23;20019;-81
2021/09/03 07:00:15;;;;;;;41.55;20.55;;;;;;;14.24;97.75;102437.09;6183365;23;20092;-79
2021/09/03 07:02:40;;;;;;;39.40;19.13;;;;;;;14.33;95.71;102432.94;6185295;23;20013;-79
2021/09/03 07:05:06;;;;;;;38.67;18.85;;;;;;;14.42;95.66;102432.31;6184400;23;20298;-77
2021/09/03 07:07:32;;;;;;;40.42;20.00;;;;;;;14.50;95.43;102428.09;6185049;23;20001;-76
2021/09/03 07:09:57;;;;;;;36.35;18.40;;;;;;;14.56;94.52;102423.84;6187152;23;20060;-76
2021/09/03 07:12:24;;;;;;;34.38;19.38;;;;;;;14.65;93.79;102424.09;6184573;23;20040;-78
2021/09/03 07:14:51;;;;;;;42.97;19.80;;;;;;;14.73;93.50;102411.94;6185325;23;20384;-81
2021/09/03 07:17:17;;;;;;;34.03;18.23;;;;;;;14.84;93.31;102417.50;6157686;23;20108;-77
2021/09/03 07:19:42;;;;;;;40.35;19.17;;;;;;;14.88;92.18;102424.66;6185256;23;20020;-76
2021/09/03 07:22:08;;;;;;;33.92;18.65;;;;;;;14.99;92.20;102417.84;6184770;23;20013;-76
2021/09/03 07:24:33;;;;;;;38.28;19.83;;;;;;;15.06;92.44;102425.97;6185507;23;20001;-81
2021/09/03 07:26:59;;;;;;;39.42;18.83;;;;;;;15.16;91.94;102417.34;6186174;23;20001;-81
2021/09/03 07:29:27;;;;;;;39.60;19.90;;;;;;;15.23;91.89;102413.97;6186805;23;20005;-76
2021/09/03 07:31:54;;;;;;;36.13;19.00;;;;;;;15.37;92.41;102427.56;6186337;23;20055;-80
2021/09/03 07:34:19;;;;;;;37.00;18.38;;;;;;;15.44;90.92;102424.16;6185275;23;20405;-80
2021/09/03 07:36:44;;;;;;;30.70;18.80;;;;;;;15.59;92.16;102433.31;6189479;23;20001;-78
2021/09/03 07:39:10;;;;;;;36.40;18.55;;;;;;;15.71;90.61;102419.41;6188786;23;20025;-81
2021/09/03 07:41:35;;;;;;;35.10;19.35;;;;;;;15.78;89.06;102416.91;6189427;23;20032;-77
2021/09/03 07:44:01;;;;;;;30.17;17.08;;;;;;;15.94;90.23;102422.53;6185609;23;20011;-78
2021/09/03 07:46:26;;;;;;;30.98;18.02;;;;;;;16.04;87.74;102410.38;6185968;23;20036;-80
2021/09/03 07:48:52;;;;;;;35.47;16.35;;;;;;;16.08;87.52;102401.59;6186674;23;20001;-78
2021/09/03 07:51:37;;;;;;;36.47;16.40;;;;;;;16.07;84.92;102402.47;6184912;23;20049;-80
2021/09/03 07:54:23;;;;;;;32.33;17.58;;;;;;;16.12;86.28;102396.34;6186773;23;20012;-80
2021/09/03 07:56:48;;;;;;;34.00;17.42;;;;;;;16.16;85.38;102400.84;6186491;23;20341;-80
2021/09/03 07:59:14;;;;;;;33.75;16.63;;;;;;;16.27;86.24;102402.81;6184119;23;20004;-78
2021/09/03 08:01:39;;;;;;;31.88;15.80;;;;;;;16.25;84.81;102397.50;6179150;23;20076;-78
2021/09/03 08:04:05;;;;;;;28.15;17.40;;;;;;;16.37;85.71;102395.91;6181271;23;20013;-75
2021/09/03 08:06:30;;;;;;;28.15;16.52;;;;;;;16.44;84.85;102388.06;6182567;23;20421;-78
2021/09/03 08:08:55;;;;;;;27.88;16.83;;;;;;;16.50;84.35;102385.50;6183094;23;20001;-80
2021/09/03 08:11:21;;;;;;;31.13;17.75;;;;;;;16.59;84.35;102390.09;6183211;23;20009;-79
2021/09/03 08:13:46;;;;;;;30.00;15.02;;;;;;;16.64;84.54;102387.50;6183332;23;20028;-79
2021/09/03 08:16:12;;;;;;;34.13;16.73;;;;;;;16.74;84.96;102393.84;6183856;23;20487;-79
2021/09/03 08:18:37;;;;;;;33.72;16.52;;;;;;;16.90;85.02;102389.72;6183857;23;20012;-76
2021/09/03 08:21:03;;;;;;;26.45;17.10;;;;;;;17.01;83.53;102385.44;6183068;23;20466;-79
2021/09/03 08:23:28;;;;;;;31.85;15.77;;;;;;;17.12;83.59;102391.81;6183074;23;20028;-80
2021/09/03 08:25:54;;;;;;;30.80;15.77;;;;;;;17.28;82.64;102384.03;6181785;23;20009;-80
2021/09/03 08:28:19;;;;;;;24.88;15.02;;;;;;;17.42;82.49;102390.44;6181892;23;20426;-81
2021/09/03 08:30:45;;;;;;;21.27;14.23;;;;;;;17.55;81.01;102378.19;6179109;23;20112;-80
2021/09/03 08:33:10;;;;;;;22.73;14.48;;;;;;;17.65;80.38;102377.44;6181961;23;20011;-78
2021/09/03 08:35:38;;;;;;;26.65;15.05;;;;;;;17.81;80.05;102383.81;6183930;23;20001;-78
2021/09/03 08:38:06;;;;;;;21.63;15.50;;;;;;;17.93;79.47;102382.19;6185532;23;20059;-80
2021/09/03 08:40:32;;;;;;;24.38;14.15;;;;;;;18.11;79.01;102382.41;6180399;23;20013;-76
2021/09/03 08:42:58;;;;;;;24.25;12.68;;;;;;;18.28;77.94;102376.34;6182842;23;20067;-81
2021/09/03 08:45:23;;;;;;;27.35;13.40;;;;;;;18.49;76.72;102373.84;6181521;23;20009;-80
2021/09/03 08:47:49;;;;;;;27.73;14.25;;;;;;;18.68;74.94;102379.34;6183343;23;20083;-79
2021/09/03 08:50:16;;;;;;;23.48;13.70;;;;;;;18.91;74.79;102376.88;6181464;23;20021;-77
2021/09/03 08:53:03;;;;;;;26.55;11.43;;;;;;;19.04;72.80;102372.47;6180067;23;20001;-82
2021/09/03 08:55:28;;;;;;;20.50;11.73;;;;;;;19.21;71.87;102369.91;6183100;23;20012;-79
2021/09/03 08:57:53;;;;;;;20.95;12.05;;;;;;;19.40;70.65;102370.91;6185677;23;20000;-77
2021/09/03 09:00:25;;;;;;;24.70;12.65;;;;;;;19.41;70.15;102375.34;6153930;23;20436;-78
2021/09/03 09:03:20;;;;;;;23.98;12.68;;;;;;;19.64;71.34;102369.19;6185270;23;20027;-80
2021/09/03 09:05:46;;;;;;;23.58;11.50;;;;;;;19.67;70.14;102366.56;6183733;23;20032;-78
2021/09/03 09:08:31;;;;;;;23.10;11.02;;;;;;;19.72;70.50;102370.09;6184201;23;20027;-78
2021/09/03 09:11:17;;;;;;;17.75;10.95;;;;;;;19.79;69.06;102369.25;6186133;23;20388;-77
2021/09/03 09:13:45;;;;;;;20.63;12.18;;;;;;;19.85;69.09;102373.75;6185175;23;20001;-77
2021/09/03 09:16:33;;;;;;;24.08;12.43;;;;;;;20.20;68.19;102363.09;6185834;23;20136;-77
2021/09/03 09:19:17;;;;;;;22.30;12.27;;;;;;;20.59;67.48;102367.56;6183944;23;20436;-79
2021/09/03 09:21:43;;;;;;;26.35;12.07;;;;;;;20.80;65.33;102362.22;6183989;23;20032;-78
2021/09/03 09:24:32;;;;;;;20.70;11.63;;;;;;;20.95;63.97;102369.31;6184073;23;20056;-77
2021/09/03 09:26:58;;;;;;;20.48;11.02;;;;;;;21.52;64.47;102357.53;6184165;23;20017;-79
2021/09/03 09:29:28;;;;;;;18.80;11.10;;;;;;;21.70;63.64;102367.28;6185680;23;20013;-78
2021/09/03 09:32:14;;;;;;;17.50;11.23;;;;;;;21.90;61.74;102359.13;6184665;23;20096;-79
2021/09/03 09:34:59;;;;;;;26.10;11.15;;;;;;;22.09;64.10;102365.25;6184726;23;20007;-78
2021/09/03 09:37:25;;;;;;;20.50;12.55;;;;;;;22.08;61.42;102352.72;6184658;23;20065;-80
2021/09/03 09:40:10;;;;;;;17.35;10.27;;;;;;;22.06;60.46;102354.56;6185654;23;20424;-79
2021/09/03 09:42:38;;;;;;;22.27;10.45;;;;;;;22.71;58.16;102352.22;6175512;23;20009;-79
2021/09/03 09:45:12;;;;;;;21.65;9.95;;;;;;;23.56;54.96;102348.56;6183803;23;20340;-79
2021/09/03 09:47:59;;;;;;;18.88;10.38;;;;;;;23.61;56.96;102348.50;6183880;23;20081;-77
2021/09/03 09:50:48;;;;;;;18.65;10.50;;;;;;;24.38;54.63;102346.44;6185110;23;20009;-78
2021/09/03 09:53:14;;;;;;;17.70;9.27;;;;;;;25.20;51.22;102340.44;6184541;23;20012;-79
2021/09/03 09:55:48;;;;;;;17.00;10.02;;;;;;;25.30;49.67;102337.50;6185487;23;20011;-77
2021/09/03 09:58:15;;;;;;;21.83;9.40;;;;;;;25.38;50.28;102325.69;6157116;23;20020;-78
2021/09/03 10:00:42;;;;;;;18.25;9.93;;;;;;;25.67;48.69;102325.97;6178715;23;20013;-78
2021/09/03 10:03:08;;;;;;;22.27;9.68;;;;;;;25.90;48.09;102323.59;6186428;23;20016;-77
2021/09/03 10:05:36;;;;;;;18.40;9.65;;;;;;;26.53;46.13;102320.25;6182592;23;20495;-80
2021/09/03 10:08:02;;;;;;;19.60;11.02;;;;;;;26.57;46.31;102330.03;6183469;23;20015;-77
2021/09/03 10:10:27;;;;;;;18.23;10.55;;;;;;;26.50;46.40;102318.50;6183122;23;20036;-79
2021/09/03 10:12:53;;;;;;;16.77;9.98;;;;;;;26.31;46.85;102322.63;6182997;23;20012;-82
2021/09/03 10:15:19;;;;;;;15.18;9.88;;;;;;;26.56;47.25;102322.84;6182525;23;19997;-78
2021/09/03 10:17:45;;;;;;;21.85;10.45;;;;;;;26.39;45.21;102310.69;6183965;23;20012;-79
2021/09/03 10:20:12;;;;;;;21.35;11.23;;;;;;;26.67;45.82;102314.44;6183580;23;20020;-79
2021/09/03 10:23:00;;;;;;;16.20;9.23;;;;;;;26.59;45.56;102302.06;6182888;23;20013;-79
2021/09/03 10:25:25;;;;;;;19.58;10.70;;;;;;;27.21;45.02;102304.81;6182380;23;20009;-79
2021/09/03 10:28:24;;;;;;;23.13;9.32;;;;;;;27.51;44.13;102303.03;6183251;23;20447;-78
2021/09/03 10:31:24;;;;;;;17.77;9.50;;;;;;;28.02;41.86;102297.81;6183275;23;20005;-77
2021/09/03 10:33:50;;;;;;;14.63;10.32;;;;;;;27.40;42.90;102299.78;6182885;23;20013;-80
2021/09/03 10:36:54;;;;;;;17.95;10.07;;;;;;;27.34;44.59;102303.53;6183155;23;20009;-79
2021/09/03 10:39:24;;;;;;;19.30;11.38;;;;;;;27.10;44.44;102302.44;6182725;23;20004;-78
2021/09/03 10:41:51;;;;;;;15.40;10.57;;;;;;;27.01;44.24;102303.63;6181892;23;20017;-78
2021/09/03 10:44:17;;;;;;;18.23;10.80;;;;;;;27.06;44.34;102296.28;6183253;23;20013;-77
2021/09/03 10:46:43;;;;;;;18.13;10.63;;;;;;;27.60;42.32;102288.34;6184431;23;20459;-78
2021/09/03 10:49:09;;;;;;;18.02;10.35;;;;;;;28.03;41.73;102288.78;6183476;23;20084;-79
2021/09/03 10:51:36;;;;;;;17.83;10.57;;;;;;;28.30;41.98;102286.03;6184376;23;20436;-78
2021/09/03 10:54:16;;;;;;;15.50;10.38;;;;;;;28.49;41.63;102273.63;6184473;23;20013;-81
2021/09/03 10:56:54;;;;;;;16.15;11.30;;;;;;;28.16;41.84;102268.47;6183998;23;20013;-79
2021/09/03 10:59:39;;;;;;;16.60;10.02;;;;;;;27.98;43.29;102269.06;6183544;23;20035;-81
2021/09/03 11:02:13;;;;;;;15.15;10.60;;;;;;;28.68;41.32;102270.28;6180097;23;20009;-79
2021/09/03 11:05:04;;;;;;;23.92;10.52;;;;;;;28.46;43.39;102275.53;6185193;23;20409;-79
2021/09/03 11:07:45;;;;;;;17.75;11.13;;;;;;;28.43;41.79;102260.28;6172444;23;20344;-75
2021/09/03 11:10:21;;;;;;;21.08;10.75;;;;;;;28.54;42.31;102258.09;6184008;23;20106;-75
2021/09/03 11:12:53;;;;;;;20.77;11.38;;;;;;;28.76;40.88;102246.50;6183804;23;20008;-78
2021/09/03 11:15:20;;;;;;;20.20;11.30;;;;;;;28.90;43.09;102254.97;6184194;23;20001;-75